sensor_id;sensor_type;location;lat;lon;timestamp;P1;durP1;ratioP1;P2;durP2;ratioP2
3959;SDS011;1994;48.640;8.894;2022-07-05T00:00:17;3.17;;;2.87;;
3959;SDS011;1994;48.640;8.894;2022-07-05T00:02:43;3.90;;;3.30;;
3959;SDS011;1994;48.640;8.894;2022-07-05T00:05:09;4.00;;;3.07;;
3959;SDS011;1994;48.640;8.894;2022-07-05T00:07:35;3.40;;;3.20;;
3959;SDS011;1994;48.640;8.894;2022-07-05T00:10:00;4.70;;;2.93;;
3959;SDS011;1994;48.640;8.894;2022-07-05T00:12:28;3.57;;;3.10;;
3959;SDS011;1994;48.640;8.894;2022-07-05T00:14:57;4.13;;;2.93;;
3959;SDS011;1994;48.640;8.894;2022-07-05T00:17:27;3.33;;;3.00;;
3959;SDS011;1994;48.640;8.894;2022-07-05T00:19:54;3.10;;;2.90;;
3959;SDS011;1994;48.640;8.894;2022-07-05T00:22:20;3.60;;;3.30;;
3959;SDS011;1994;48.640;8.894;2022-07-05T00:24:46;4.20;;;3.03;;
3959;SDS011;1994;48.640;8.894;2022-07-05T00:27:12;7.37;;;3.17;;
3959;SDS011;1994;48.640;8.894;2022-07-05T00:29:37;2.93;;;2.73;;
3959;SDS011;1994;48.640;8.894;2022-07-05T00:32:03;3.03;;;2.83;;
3959;SDS011;1994;48.640;8.894;2022-07-05T00:34:29;3.87;;;3.20;;
3959;SDS011;1994;48.640;8.894;2022-07-05T00:36:55;3.17;;;2.87;;
3959;SDS011;1994;48.640;8.894;2022-07-05T00:39:21;3.10;;;2.90;;
3959;SDS011;1994;48.640;8.894;2022-07-05T00:41:46;4.43;;;3.00;;
3959;SDS011;1994;48.640;8.894;2022-07-05T00:44:12;3.10;;;2.90;;
3959;SDS011;1994;48.640;8.894;2022-07-05T00:46:39;4.43;;;3.27;;
3959;SDS011;1994;48.640;8.894;2022-07-05T00:49:07;4.00;;;3.50;;
3959;SDS011;1994;48.640;8.894;2022-07-05T00:51:34;3.80;;;3.17;;
3959;SDS011;1994;48.640;8.894;2022-07-05T00:54:03;3.50;;;3.20;;
3959;SDS011;1994;48.640;8.894;2022-07-05T00:56:31;4.23;;;3.90;;
3959;SDS011;1994;48.640;8.894;2022-07-05T00:58:57;9.63;;;3.63;;
3959;SDS011;1994;48.640;8.894;2022-07-05T01:01:23;5.47;;;3.37;;
3959;SDS011;1994;48.640;8.894;2022-07-05T01:03:51;3.03;;;2.83;;
3959;SDS011;1994;48.640;8.894;2022-07-05T01:06:17;6.47;;;3.03;;
3959;SDS011;1994;48.640;8.894;2022-07-05T01:08:44;2.97;;;2.77;;
3959;SDS011;1994;48.640;8.894;2022-07-05T01:11:11;3.67;;;3.37;;
3959;SDS011;1994;48.640;8.894;2022-07-05T01:13:38;7.87;;;3.03;;
3959;SDS011;1994;48.640;8.894;2022-07-05T01:16:04;3.43;;;3.23;;
3959;SDS011;1994;48.640;8.894;2022-07-05T01:18:31;9.63;;;3.30;;
3959;SDS011;1994;48.640;8.894;2022-07-05T01:20:58;3.40;;;3.10;;
3959;SDS011;1994;48.640;8.894;2022-07-05T01:23:31;8.20;;;3.20;;
3959;SDS011;1994;48.640;8.894;2022-07-05T01:25:58;3.53;;;3.10;;
3959;SDS011;1994;48.640;8.894;2022-07-05T01:28:27;4.10;;;3.50;;
3959;SDS011;1994;48.640;8.894;2022-07-05T01:30:54;5.80;;;3.33;;
3959;SDS011;1994;48.640;8.894;2022-07-05T01:33:26;3.03;;;2.70;;
3959;SDS011;1994;48.640;8.894;2022-07-05T01:35:56;3.30;;;3.00;;
3959;SDS011;1994;48.640;8.894;2022-07-05T01:38:24;3.17;;;2.93;;
3959;SDS011;1994;48.640;8.894;2022-07-05T01:40:50;5.53;;;2.90;;
3959;SDS011;1994;48.640;8.894;2022-07-05T01:43:20;3.37;;;3.07;;
3959;SDS011;1994;48.640;8.894;2022-07-05T01:45:48;3.37;;;3.07;;
3959;SDS011;1994;48.640;8.894;2022-07-05T01:48:15;4.60;;;3.70;;
3959;SDS011;1994;48.640;8.894;2022-07-05T01:50:48;3.50;;;3.20;;
3959;SDS011;1994;48.640;8.894;2022-07-05T01:53:23;3.03;;;2.83;;
3959;SDS011;1994;48.640;8.894;2022-07-05T01:55:53;8.33;;;3.27;;
3959;SDS011;1994;48.640;8.894;2022-07-05T01:58:22;3.33;;;3.13;;
3959;SDS011;1994;48.640;8.894;2022-07-05T02:00:51;3.60;;;3.30;;
3959;SDS011;1994;48.640;8.894;2022-07-05T02:03:19;4.50;;;3.33;;
3959;SDS011;1994;48.640;8.894;2022-07-05T02:05:45;2.80;;;2.60;;
3959;SDS011;1994;48.640;8.894;2022-07-05T02:08:12;3.23;;;3.03;;
3959;SDS011;1994;48.640;8.894;2022-07-05T02:10:39;3.03;;;2.83;;
3959;SDS011;1994;48.640;8.894;2022-07-05T02:13:06;2.90;;;2.70;;
3959;SDS011;1994;48.640;8.894;2022-07-05T02:15:33;5.47;;;3.10;;
3959;SDS011;1994;48.640;8.894;2022-07-05T02:18:01;4.40;;;3.37;;
3959;SDS011;1994;48.640;8.894;2022-07-05T02:20:29;3.50;;;3.17;;
3959;SDS011;1994;48.640;8.894;2022-07-05T02:22:56;3.10;;;2.80;;
3959;SDS011;1994;48.640;8.894;2022-07-05T02:25:23;3.07;;;2.80;;
3959;SDS011;1994;48.640;8.894;2022-07-05T02:27:49;3.77;;;3.20;;
3959;SDS011;1994;48.640;8.894;2022-07-05T02:30:16;3.00;;;2.70;;
3959;SDS011;1994;48.640;8.894;2022-07-05T02:32:42;4.43;;;3.23;;
3959;SDS011;1994;48.640;8.894;2022-07-05T02:35:09;4.07;;;3.23;;
3959;SDS011;1994;48.640;8.894;2022-07-05T02:37:36;9.60;;;3.10;;
3959;SDS011;1994;48.640;8.894;2022-07-05T02:40:04;3.00;;;2.80;;
3959;SDS011;1994;48.640;8.894;2022-07-05T02:42:35;2.87;;;2.67;;
3959;SDS011;1994;48.640;8.894;2022-07-05T02:45:02;3.00;;;2.80;;
3959;SDS011;1994;48.640;8.894;2022-07-05T02:47:29;4.20;;;2.97;;
3959;SDS011;1994;48.640;8.894;2022-07-05T02:49:56;6.23;;;3.13;;
3959;SDS011;1994;48.640;8.894;2022-07-05T02:52:33;8.30;;;3.57;;
3959;SDS011;1994;48.640;8.894;2022-07-05T02:54:59;3.27;;;2.97;;
3959;SDS011;1994;48.640;8.894;2022-07-05T02:57:26;4.90;;;3.43;;
3959;SDS011;1994;48.640;8.894;2022-07-05T02:59:54;3.00;;;2.80;;
3959;SDS011;1994;48.640;8.894;2022-07-05T03:02:21;3.30;;;2.70;;
3959;SDS011;1994;48.640;8.894;2022-07-05T03:04:48;3.80;;;3.33;;
3959;SDS011;1994;48.640;8.894;2022-07-05T03:07:14;4.10;;;3.13;;
3959;SDS011;1994;48.640;8.894;2022-07-05T03:09:40;4.03;;;3.63;;
3959;SDS011;1994;48.640;8.894;2022-07-05T03:12:06;3.93;;;3.60;;
3959;SDS011;1994;48.640;8.894;2022-07-05T03:14:32;9.23;;;3.90;;
3959;SDS011;1994;48.640;8.894;2022-07-05T03:16:58;4.03;;;3.20;;
3959;SDS011;1994;48.640;8.894;2022-07-05T03:19:24;6.10;;;3.20;;
3959;SDS011;1994;48.640;8.894;2022-07-05T03:21:50;4.50;;;2.80;;
3959;SDS011;1994;48.640;8.894;2022-07-05T03:24:16;3.67;;;2.70;;
3959;SDS011;1994;48.640;8.894;2022-07-05T03:26:41;3.47;;;3.17;;
3959;SDS011;1994;48.640;8.894;2022-07-05T03:29:07;4.17;;;3.10;;
3959;SDS011;1994;48.640;8.894;2022-07-05T03:31:33;2.83;;;2.63;;
3959;SDS011;1994;48.640;8.894;2022-07-05T03:33:59;4.60;;;2.80;;
3959;SDS011;1994;48.640;8.894;2022-07-05T03:36:25;3.00;;;2.80;;
3959;SDS011;1994;48.640;8.894;2022-07-05T03:38:50;5.63;;;3.10;;
3959;SDS011;1994;48.640;8.894;2022-07-05T03:41:16;3.50;;;3.20;;
3959;SDS011;1994;48.640;8.894;2022-07-05T03:43:42;3.83;;;2.83;;
3959;SDS011;1994;48.640;8.894;2022-07-05T03:46:08;4.10;;;3.70;;
3959;SDS011;1994;48.640;8.894;2022-07-05T03:48:33;4.37;;;3.30;;
3959;SDS011;1994;48.640;8.894;2022-07-05T03:50:59;3.20;;;3.00;;
3959;SDS011;1994;48.640;8.894;2022-07-05T03:53:25;3.63;;;2.57;;
3959;SDS011;1994;48.640;8.894;2022-07-05T03:55:51;3.60;;;3.30;;
3959;SDS011;1994;48.640;8.894;2022-07-05T03:58:17;4.60;;;3.23;;
3959;SDS011;1994;48.640;8.894;2022-07-05T04:00:43;3.10;;;2.90;;
3959;SDS011;1994;48.640;8.894;2022-07-05T04:03:08;3.47;;;3.17;;
3959;SDS011;1994;48.640;8.894;2022-07-05T04:05:34;6.50;;;3.80;;
3959;SDS011;1994;48.640;8.894;2022-07-05T04:08:00;3.37;;;3.07;;
3959;SDS011;1994;48.640;8.894;2022-07-05T04:10:26;6.90;;;3.50;;
3959;SDS011;1994;48.640;8.894;2022-07-05T04:12:51;3.93;;;3.50;;
3959;SDS011;1994;48.640;8.894;2022-07-05T04:15:17;4.40;;;4.00;;
3959;SDS011;1994;48.640;8.894;2022-07-05T04:17:49;5.60;;;3.53;;
3959;SDS011;1994;48.640;8.894;2022-07-05T04:20:17;4.20;;;3.40;;
3959;SDS011;1994;48.640;8.894;2022-07-05T04:22:43;4.47;;;3.57;;
3959;SDS011;1994;48.640;8.894;2022-07-05T04:25:09;4.93;;;3.07;;
3959;SDS011;1994;48.640;8.894;2022-07-05T04:27:41;5.27;;;3.93;;
3959;SDS011;1994;48.640;8.894;2022-07-05T04:30:11;5.50;;;3.70;;
3959;SDS011;1994;48.640;8.894;2022-07-05T04:32:38;6.17;;;3.40;;
3959;SDS011;1994;48.640;8.894;2022-07-05T04:35:04;3.37;;;3.07;;
3959;SDS011;1994;48.640;8.894;2022-07-05T04:37:30;3.63;;;3.33;;
3959;SDS011;1994;48.640;8.894;2022-07-05T04:39:55;3.20;;;2.90;;
3959;SDS011;1994;48.640;8.894;2022-07-05T04:42:21;4.20;;;2.97;;
3959;SDS011;1994;48.640;8.894;2022-07-05T04:44:47;6.03;;;3.77;;
3959;SDS011;1994;48.640;8.894;2022-07-05T04:47:13;3.10;;;2.90;;
3959;SDS011;1994;48.640;8.894;2022-07-05T04:49:38;3.53;;;3.10;;
3959;SDS011;1994;48.640;8.894;2022-07-05T04:52:04;8.10;;;4.60;;
3959;SDS011;1994;48.640;8.894;2022-07-05T04:54:30;3.47;;;3.17;;
3959;SDS011;1994;48.640;8.894;2022-07-05T04:56:56;4.10;;;3.57;;
3959;SDS011;1994;48.640;8.894;2022-07-05T04:59:21;4.33;;;3.20;;
3959;SDS011;1994;48.640;8.894;2022-07-05T05:01:47;5.17;;;3.17;;
3959;SDS011;1994;48.640;8.894;2022-07-05T05:04:13;5.20;;;3.80;;
3959;SDS011;1994;48.640;8.894;2022-07-05T05:06:38;4.03;;;3.40;;
3959;SDS011;1994;48.640;8.894;2022-07-05T05:09:04;5.60;;;3.27;;
3959;SDS011;1994;48.640;8.894;2022-07-05T05:11:30;4.90;;;3.53;;
3959;SDS011;1994;48.640;8.894;2022-07-05T05:13:56;3.63;;;3.33;;
3959;SDS011;1994;48.640;8.894;2022-07-05T05:16:21;3.80;;;3.30;;
3959;SDS011;1994;48.640;8.894;2022-07-05T05:18:47;7.90;;;3.87;;
3959;SDS011;1994;48.640;8.894;2022-07-05T05:21:13;3.53;;;3.20;;
3959;SDS011;1994;48.640;8.894;2022-07-05T05:23:38;4.03;;;3.20;;
3959;SDS011;1994;48.640;8.894;2022-07-05T05:26:04;3.80;;;3.37;;
3959;SDS011;1994;48.640;8.894;2022-07-05T05:28:30;3.40;;;3.10;;
3959;SDS011;1994;48.640;8.894;2022-07-05T05:30:56;4.13;;;2.97;;
3959;SDS011;1994;48.640;8.894;2022-07-05T05:33:21;2.80;;;2.60;;
3959;SDS011;1994;48.640;8.894;2022-07-05T05:35:47;5.07;;;3.83;;
3959;SDS011;1994;48.640;8.894;2022-07-05T05:38:13;4.57;;;3.70;;
3959;SDS011;1994;48.640;8.894;2022-07-05T05:40:39;3.17;;;2.87;;
3959;SDS011;1994;48.640;8.894;2022-07-05T05:43:09;5.50;;;3.37;;
3959;SDS011;1994;48.640;8.894;2022-07-05T05:45:36;5.33;;;3.77;;
3959;SDS011;1994;48.640;8.894;2022-07-05T05:48:02;3.90;;;3.20;;
3959;SDS011;1994;48.640;8.894;2022-07-05T05:50:32;2.57;;;2.37;;
3959;SDS011;1994;48.640;8.894;2022-07-05T05:53:00;2.50;;;2.30;;
3959;SDS011;1994;48.640;8.894;2022-07-05T05:55:28;2.53;;;2.37;;
3959;SDS011;1994;48.640;8.894;2022-07-05T05:57:55;2.83;;;2.50;;
3959;SDS011;1994;48.640;8.894;2022-07-05T06:00:24;8.50;;;2.90;;
3959;SDS011;1994;48.640;8.894;2022-07-05T06:02:51;5.33;;;2.60;;
3959;SDS011;1994;48.640;8.894;2022-07-05T06:05:18;3.77;;;2.40;;
3959;SDS011;1994;48.640;8.894;2022-07-05T06:10:20;2.53;;;2.33;;
3959;SDS011;1994;48.640;8.894;2022-07-05T06:12:53;2.93;;;2.40;;
3959;SDS011;1994;48.640;8.894;2022-07-05T06:15:21;2.30;;;2.10;;
3959;SDS011;1994;48.640;8.894;2022-07-05T06:17:47;1.97;;;1.77;;
3959;SDS011;1994;48.640;8.894;2022-07-05T06:20:15;3.40;;;2.47;;
3959;SDS011;1994;48.640;8.894;2022-07-05T06:22:46;2.30;;;2.10;;
3959;SDS011;1994;48.640;8.894;2022-07-05T06:25:13;2.70;;;2.50;;
3959;SDS011;1994;48.640;8.894;2022-07-05T06:27:43;2.10;;;1.93;;
3959;SDS011;1994;48.640;8.894;2022-07-05T06:30:16;2.33;;;2.13;;
3959;SDS011;1994;48.640;8.894;2022-07-05T06:32:44;3.07;;;2.20;;
3959;SDS011;1994;48.640;8.894;2022-07-05T06:35:12;2.50;;;2.30;;
3959;SDS011;1994;48.640;8.894;2022-07-05T06:37:42;2.63;;;2.43;;
3959;SDS011;1994;48.640;8.894;2022-07-05T06:40:17;2.37;;;2.17;;
3959;SDS011;1994;48.640;8.894;2022-07-05T06:42:48;2.20;;;1.97;;
3959;SDS011;1994;48.640;8.894;2022-07-05T06:45:19;1.90;;;1.80;;
3959;SDS011;1994;48.640;8.894;2022-07-05T06:47:47;2.37;;;2.17;;
3959;SDS011;1994;48.640;8.894;2022-07-05T06:50:23;2.27;;;1.90;;
3959;SDS011;1994;48.640;8.894;2022-07-05T06:52:54;2.10;;;2.00;;
3959;SDS011;1994;48.640;8.894;2022-07-05T06:55:20;2.00;;;1.90;;
3959;SDS011;1994;48.640;8.894;2022-07-05T06:57:47;4.50;;;2.10;;
3959;SDS011;1994;48.640;8.894;2022-07-05T07:00:13;2.20;;;1.83;;
3959;SDS011;1994;48.640;8.894;2022-07-05T07:02:39;2.30;;;1.93;;
3959;SDS011;1994;48.640;8.894;2022-07-05T07:05:06;2.90;;;1.83;;
3959;SDS011;1994;48.640;8.894;2022-07-05T07:07:33;2.00;;;1.90;;
3959;SDS011;1994;48.640;8.894;2022-07-05T07:10:18;1.70;;;1.60;;
3959;SDS011;1994;48.640;8.894;2022-07-05T07:12:44;1.83;;;1.73;;
3959;SDS011;1994;48.640;8.894;2022-07-05T07:15:10;3.17;;;1.90;;
3959;SDS011;1994;48.640;8.894;2022-07-05T07:17:36;12.60;;;1.73;;
3959;SDS011;1994;48.640;8.894;2022-07-05T07:20:02;2.00;;;1.80;;
3959;SDS011;1994;48.640;8.894;2022-07-05T07:22:28;1.87;;;1.77;;
3959;SDS011;1994;48.640;8.894;2022-07-05T07:24:53;2.07;;;1.90;;
3959;SDS011;1994;48.640;8.894;2022-07-05T07:27:19;2.30;;;2.00;;
3959;SDS011;1994;48.640;8.894;2022-07-05T07:29:45;2.00;;;1.90;;
3959;SDS011;1994;48.640;8.894;2022-07-05T07:32:11;2.10;;;2.00;;
3959;SDS011;1994;48.640;8.894;2022-07-05T07:34:37;2.00;;;1.90;;
3959;SDS011;1994;48.640;8.894;2022-07-05T07:37:03;1.80;;;1.70;;
3959;SDS011;1994;48.640;8.894;2022-07-05T07:39:30;2.63;;;2.37;;
3959;SDS011;1994;48.640;8.894;2022-07-05T07:41:56;9.43;;;3.23;;
3959;SDS011;1994;48.640;8.894;2022-07-05T07:44:23;2.23;;;2.10;;
3959;SDS011;1994;48.640;8.894;2022-07-05T07:46:49;3.37;;;2.40;;
3959;SDS011;1994;48.640;8.894;2022-07-05T07:49:16;2.13;;;1.93;;
3959;SDS011;1994;48.640;8.894;2022-07-05T07:51:42;2.10;;;1.90;;
3959;SDS011;1994;48.640;8.894;2022-07-05T07:54:08;2.40;;;2.20;;
3959;SDS011;1994;48.640;8.894;2022-07-05T07:56:35;4.47;;;1.90;;
3959;SDS011;1994;48.640;8.894;2022-07-05T07:59:01;2.57;;;2.10;;
3959;SDS011;1994;48.640;8.894;2022-07-05T08:01:27;2.93;;;2.20;;
3959;SDS011;1994;48.640;8.894;2022-07-05T08:03:53;1.90;;;1.80;;
3959;SDS011;1994;48.640;8.894;2022-07-05T08:06:18;4.23;;;1.90;;
3959;SDS011;1994;48.640;8.894;2022-07-05T08:08:44;3.17;;;1.93;;
3959;SDS011;1994;48.640;8.894;2022-07-05T08:11:11;3.37;;;1.90;;
3959;SDS011;1994;48.640;8.894;2022-07-05T08:13:38;2.10;;;2.00;;
3959;SDS011;1994;48.640;8.894;2022-07-05T08:16:07;2.40;;;2.20;;
3959;SDS011;1994;48.640;8.894;2022-07-05T08:18:34;2.10;;;2.00;;
3959;SDS011;1994;48.640;8.894;2022-07-05T08:21:19;1.67;;;1.57;;
3959;SDS011;1994;48.640;8.894;2022-07-05T08:24:01;2.50;;;2.00;;
3959;SDS011;1994;48.640;8.894;2022-07-05T08:26:32;2.07;;;1.97;;
3959;SDS011;1994;48.640;8.894;2022-07-05T08:29:02;2.60;;;2.03;;
3959;SDS011;1994;48.640;8.894;2022-07-05T08:31:31;2.17;;;1.97;;
3959;SDS011;1994;48.640;8.894;2022-07-05T08:33:59;1.80;;;1.70;;
3959;SDS011;1994;48.640;8.894;2022-07-05T08:36:25;2.10;;;2.00;;
3959;SDS011;1994;48.640;8.894;2022-07-05T08:38:51;2.17;;;1.77;;
3959;SDS011;1994;48.640;8.894;2022-07-05T08:41:18;1.80;;;1.70;;
3959;SDS011;1994;48.640;8.894;2022-07-05T08:43:46;1.90;;;1.80;;
3959;SDS011;1994;48.640;8.894;2022-07-05T08:46:14;3.27;;;1.90;;
3959;SDS011;1994;48.640;8.894;2022-07-05T08:48:42;2.50;;;2.03;;
3959;SDS011;1994;48.640;8.894;2022-07-05T08:51:16;1.97;;;1.83;;
3959;SDS011;1994;48.640;8.894;2022-07-05T08:53:47;2.00;;;1.90;;
3959;SDS011;1994;48.640;8.894;2022-07-05T08:56:21;2.20;;;2.10;;
3959;SDS011;1994;48.640;8.894;2022-07-05T08:58:47;4.00;;;2.33;;
3959;SDS011;1994;48.640;8.894;2022-07-05T09:01:14;2.77;;;2.10;;
3959;SDS011;1994;48.640;8.894;2022-07-05T09:03:44;3.57;;;2.03;;
3959;SDS011;1994;48.640;8.894;2022-07-05T09:06:15;1.80;;;1.70;;
3959;SDS011;1994;48.640;8.894;2022-07-05T09:08:54;1.97;;;1.80;;
3959;SDS011;1994;48.640;8.894;2022-07-05T09:11:24;1.77;;;1.67;;
3959;SDS011;1994;48.640;8.894;2022-07-05T09:13:56;4.63;;;1.83;;
3959;SDS011;1994;48.640;8.894;2022-07-05T09:16:22;2.33;;;1.90;;
3959;SDS011;1994;48.640;8.894;2022-07-05T09:18:49;5.20;;;2.13;;
3959;SDS011;1994;48.640;8.894;2022-07-05T09:21:26;2.43;;;1.90;;
3959;SDS011;1994;48.640;8.894;2022-07-05T09:24:03;1.90;;;1.70;;
3959;SDS011;1994;48.640;8.894;2022-07-05T09:26:36;2.83;;;1.80;;
3959;SDS011;1994;48.640;8.894;2022-07-05T09:29:15;1.80;;;1.70;;
3959;SDS011;1994;48.640;8.894;2022-07-05T09:31:46;4.33;;;1.93;;
3959;SDS011;1994;48.640;8.894;2022-07-05T09:34:15;2.00;;;1.80;;
3959;SDS011;1994;48.640;8.894;2022-07-05T09:44:48;1.70;;;1.60;;
3959;SDS011;1994;48.640;8.894;2022-07-05T09:47:17;2.67;;;2.20;;
3959;SDS011;1994;48.640;8.894;2022-07-05T09:49:46;2.57;;;2.37;;
3959;SDS011;1994;48.640;8.894;2022-07-05T09:52:36;3.90;;;1.80;;
3959;SDS011;1994;48.640;8.894;2022-07-05T09:57:39;2.90;;;1.73;;
3959;SDS011;1994;48.640;8.894;2022-07-05T10:02:39;1.80;;;1.70;;
3959;SDS011;1994;48.640;8.894;2022-07-05T10:05:17;1.90;;;1.73;;
3959;SDS011;1994;48.640;8.894;2022-07-05T10:07:58;1.77;;;1.67;;
3959;SDS011;1994;48.640;8.894;2022-07-05T10:10:28;1.77;;;1.60;;
3959;SDS011;1994;48.640;8.894;2022-07-05T10:12:58;2.20;;;2.00;;
3959;SDS011;1994;48.640;8.894;2022-07-05T10:15:30;1.93;;;1.80;;
3959;SDS011;1994;48.640;8.894;2022-07-05T10:18:03;3.33;;;1.90;;
3959;SDS011;1994;48.640;8.894;2022-07-05T10:20:38;2.07;;;1.50;;
3959;SDS011;1994;48.640;8.894;2022-07-05T10:23:08;1.70;;;1.60;;
3959;SDS011;1994;48.640;8.894;2022-07-05T10:25:37;1.87;;;1.77;;
3959;SDS011;1994;48.640;8.894;2022-07-05T10:28:05;2.00;;;1.63;;
3959;SDS011;1994;48.640;8.894;2022-07-05T10:30:33;1.90;;;1.80;;
3959;SDS011;1994;48.640;8.894;2022-07-05T10:33:01;1.90;;;1.80;;
3959;SDS011;1994;48.640;8.894;2022-07-05T10:35:28;2.37;;;1.70;;
3959;SDS011;1994;48.640;8.894;2022-07-05T10:37:54;2.10;;;1.73;;
3959;SDS011;1994;48.640;8.894;2022-07-05T10:40:22;1.97;;;1.87;;
3959;SDS011;1994;48.640;8.894;2022-07-05T10:42:49;1.80;;;1.70;;
3959;SDS011;1994;48.640;8.894;2022-07-05T10:45:34;1.77;;;1.67;;
3959;SDS011;1994;48.640;8.894;2022-07-05T10:48:11;1.97;;;1.73;;
3959;SDS011;1994;48.640;8.894;2022-07-05T10:53:25;2.70;;;1.70;;
3959;SDS011;1994;48.640;8.894;2022-07-05T10:56:10;1.80;;;1.70;;
3959;SDS011;1994;48.640;8.894;2022-07-05T10:58:41;2.20;;;2.00;;
3959;SDS011;1994;48.640;8.894;2022-07-05T11:06:26;1.87;;;1.70;;
3959;SDS011;1994;48.640;8.894;2022-07-05T11:11:31;2.10;;;1.90;;
3959;SDS011;1994;48.640;8.894;2022-07-05T11:13:57;1.60;;;1.50;;
3959;SDS011;1994;48.640;8.894;2022-07-05T11:16:30;2.13;;;1.97;;
3959;SDS011;1994;48.640;8.894;2022-07-05T11:19:10;2.53;;;1.90;;
3959;SDS011;1994;48.640;8.894;2022-07-05T11:21:59;1.80;;;1.70;;
3959;SDS011;1994;48.640;8.894;2022-07-05T11:24:30;3.00;;;1.77;;
3959;SDS011;1994;48.640;8.894;2022-07-05T11:27:01;3.13;;;1.67;;
3959;SDS011;1994;48.640;8.894;2022-07-05T11:29:47;7.30;;;1.90;;
3959;SDS011;1994;48.640;8.894;2022-07-05T11:34:57;1.77;;;1.67;;
3959;SDS011;1994;48.640;8.894;2022-07-05T11:38:02;2.73;;;1.90;;
3959;SDS011;1994;48.640;8.894;2022-07-05T11:43:03;1.90;;;1.80;;
3959;SDS011;1994;48.640;8.894;2022-07-05T11:45:32;1.50;;;1.40;;
3959;SDS011;1994;48.640;8.894;2022-07-05T11:47:58;1.60;;;1.50;;
3959;SDS011;1994;48.640;8.894;2022-07-05T11:50:30;3.03;;;1.73;;
3959;SDS011;1994;48.640;8.894;2022-07-05T11:52:58;1.90;;;1.80;;
3959;SDS011;1994;48.640;8.894;2022-07-05T11:55:28;1.77;;;1.67;;
3959;SDS011;1994;48.640;8.894;2022-07-05T11:57:55;3.10;;;1.83;;
3959;SDS011;1994;48.640;8.894;2022-07-05T12:00:29;2.00;;;1.90;;
3959;SDS011;1994;48.640;8.894;2022-07-05T12:03:11;2.47;;;1.80;;
3959;SDS011;1994;48.640;8.894;2022-07-05T12:05:39;5.93;;;1.90;;
3959;SDS011;1994;48.640;8.894;2022-07-05T12:08:08;2.13;;;1.93;;
3959;SDS011;1994;48.640;8.894;2022-07-05T12:10:34;15.93;;;1.93;;
3959;SDS011;1994;48.640;8.894;2022-07-05T12:13:19;2.20;;;2.00;;
3959;SDS011;1994;48.640;8.894;2022-07-05T12:15:45;2.00;;;1.90;;
3959;SDS011;1994;48.640;8.894;2022-07-05T12:18:11;2.33;;;2.13;;
3959;SDS011;1994;48.640;8.894;2022-07-05T12:20:38;1.93;;;1.60;;
3959;SDS011;1994;48.640;8.894;2022-07-05T12:23:10;2.30;;;2.10;;
3959;SDS011;1994;48.640;8.894;2022-07-05T12:25:38;2.73;;;2.30;;
3959;SDS011;1994;48.640;8.894;2022-07-05T12:28:04;1.90;;;1.80;;
3959;SDS011;1994;48.640;8.894;2022-07-05T12:30:34;4.07;;;1.70;;
3959;SDS011;1994;48.640;8.894;2022-07-05T12:38:17;2.17;;;2.07;;
3959;SDS011;1994;48.640;8.894;2022-07-05T12:40:46;2.47;;;2.27;;
3959;SDS011;1994;48.640;8.894;2022-07-05T12:43:24;3.23;;;2.17;;
3959;SDS011;1994;48.640;8.894;2022-07-05T12:46:06;3.43;;;1.90;;
3959;SDS011;1994;48.640;8.894;2022-07-05T12:48:34;2.00;;;1.90;;
3959;SDS011;1994;48.640;8.894;2022-07-05T12:51:02;5.23;;;2.20;;
3959;SDS011;1994;48.640;8.894;2022-07-05T12:53:29;3.73;;;2.50;;
3959;SDS011;1994;48.640;8.894;2022-07-05T12:56:14;2.60;;;2.10;;
3959;SDS011;1994;48.640;8.894;2022-07-05T12:59:03;2.07;;;1.97;;
3959;SDS011;1994;48.640;8.894;2022-07-05T13:01:33;2.07;;;1.97;;
3959;SDS011;1994;48.640;8.894;2022-07-05T13:09:33;7.70;;;2.23;;
3959;SDS011;1994;48.640;8.894;2022-07-05T13:12:21;4.10;;;2.33;;
3959;SDS011;1994;48.640;8.894;2022-07-05T13:14:50;4.53;;;2.47;;
3959;SDS011;1994;48.640;8.894;2022-07-05T13:17:21;2.13;;;1.90;;
3959;SDS011;1994;48.640;8.894;2022-07-05T13:19:50;3.97;;;2.30;;
3959;SDS011;1994;48.640;8.894;2022-07-05T13:22:16;2.53;;;2.33;;
3959;SDS011;1994;48.640;8.894;2022-07-05T13:24:43;2.33;;;2.13;;
3959;SDS011;1994;48.640;8.894;2022-07-05T13:27:10;4.80;;;2.40;;
3959;SDS011;1994;48.640;8.894;2022-07-05T13:29:37;2.80;;;2.50;;
3959;SDS011;1994;48.640;8.894;2022-07-05T13:32:04;2.57;;;2.30;;
3959;SDS011;1994;48.640;8.894;2022-07-05T13:34:30;2.67;;;2.47;;
3959;SDS011;1994;48.640;8.894;2022-07-05T13:36:56;3.70;;;2.10;;
3959;SDS011;1994;48.640;8.894;2022-07-05T13:39:24;2.60;;;2.40;;
3959;SDS011;1994;48.640;8.894;2022-07-05T13:41:53;2.00;;;1.90;;
3959;SDS011;1994;48.640;8.894;2022-07-05T13:44:21;2.23;;;2.13;;
3959;SDS011;1994;48.640;8.894;2022-07-05T13:46:47;3.40;;;3.03;;
3959;SDS011;1994;48.640;8.894;2022-07-05T13:49:13;3.83;;;2.20;;
3959;SDS011;1994;48.640;8.894;2022-07-05T13:51:39;3.73;;;2.30;;
3959;SDS011;1994;48.640;8.894;2022-07-05T13:54:05;1.90;;;1.80;;
3959;SDS011;1994;48.640;8.894;2022-07-05T13:56:31;2.37;;;2.17;;
3959;SDS011;1994;48.640;8.894;2022-07-05T13:58:58;6.30;;;2.37;;
3959;SDS011;1994;48.640;8.894;2022-07-05T14:01:24;2.23;;;2.00;;
3959;SDS011;1994;48.640;8.894;2022-07-05T14:04:01;2.43;;;2.33;;
3959;SDS011;1994;48.640;8.894;2022-07-05T14:06:30;6.03;;;2.37;;
3959;SDS011;1994;48.640;8.894;2022-07-05T14:08:57;2.30;;;2.10;;
3959;SDS011;1994;48.640;8.894;2022-07-05T14:11:24;3.23;;;2.30;;
3959;SDS011;1994;48.640;8.894;2022-07-05T14:13:51;3.40;;;2.20;;
3959;SDS011;1994;48.640;8.894;2022-07-05T14:16:21;2.67;;;2.27;;
3959;SDS011;1994;48.640;8.894;2022-07-05T14:18:48;3.30;;;2.50;;
3959;SDS011;1994;48.640;8.894;2022-07-05T14:21:15;3.77;;;2.07;;
3959;SDS011;1994;48.640;8.894;2022-07-05T14:23:42;2.00;;;1.83;;
3959;SDS011;1994;48.640;8.894;2022-07-05T14:26:14;4.00;;;2.77;;
3959;SDS011;1994;48.640;8.894;2022-07-05T14:28:40;2.70;;;2.20;;
3959;SDS011;1994;48.640;8.894;2022-07-05T14:31:06;2.60;;;2.30;;
3959;SDS011;1994;48.640;8.894;2022-07-05T14:33:32;2.37;;;1.90;;
3959;SDS011;1994;48.640;8.894;2022-07-05T14:35:58;2.20;;;2.10;;
3959;SDS011;1994;48.640;8.894;2022-07-05T14:38:24;2.50;;;2.30;;
3959;SDS011;1994;48.640;8.894;2022-07-05T14:40:49;2.10;;;2.00;;
3959;SDS011;1994;48.640;8.894;2022-07-05T14:43:15;3.10;;;2.20;;
3959;SDS011;1994;48.640;8.894;2022-07-05T14:45:41;1.87;;;1.77;;
3959;SDS011;1994;48.640;8.894;2022-07-05T14:48:06;5.17;;;2.07;;
3959;SDS011;1994;48.640;8.894;2022-07-05T14:50:32;1.97;;;1.83;;
3959;SDS011;1994;48.640;8.894;2022-07-05T14:52:58;3.30;;;2.47;;
3959;SDS011;1994;48.640;8.894;2022-07-05T14:55:30;2.50;;;2.27;;
3959;SDS011;1994;48.640;8.894;2022-07-05T14:57:57;2.30;;;2.10;;
3959;SDS011;1994;48.640;8.894;2022-07-05T15:00:22;2.63;;;1.70;;
3959;SDS011;1994;48.640;8.894;2022-07-05T15:02:48;3.00;;;2.00;;
3959;SDS011;1994;48.640;8.894;2022-07-05T15:05:14;2.30;;;2.20;;
3959;SDS011;1994;48.640;8.894;2022-07-05T15:07:40;2.30;;;2.10;;
3959;SDS011;1994;48.640;8.894;2022-07-05T15:10:06;2.40;;;2.20;;
3959;SDS011;1994;48.640;8.894;2022-07-05T15:12:32;2.33;;;2.23;;
3959;SDS011;1994;48.640;8.894;2022-07-05T15:14:58;3.83;;;2.07;;
3959;SDS011;1994;48.640;8.894;2022-07-05T15:17:24;2.47;;;2.27;;
3959;SDS011;1994;48.640;8.894;2022-07-05T15:19:50;2.10;;;1.90;;
3959;SDS011;1994;48.640;8.894;2022-07-05T15:22:15;4.50;;;2.20;;
3959;SDS011;1994;48.640;8.894;2022-07-05T15:24:41;3.00;;;2.10;;
3959;SDS011;1994;48.640;8.894;2022-07-05T15:27:07;2.10;;;1.90;;
3959;SDS011;1994;48.640;8.894;2022-07-05T15:29:34;2.10;;;2.00;;
3959;SDS011;1994;48.640;8.894;2022-07-05T15:32:02;4.60;;;2.30;;
3959;SDS011;1994;48.640;8.894;2022-07-05T15:34:28;2.00;;;1.90;;
3959;SDS011;1994;48.640;8.894;2022-07-05T15:36:53;1.80;;;1.70;;
3959;SDS011;1994;48.640;8.894;2022-07-05T15:39:19;3.63;;;2.00;;
3959;SDS011;1994;48.640;8.894;2022-07-05T15:41:45;1.67;;;1.57;;
3959;SDS011;1994;48.640;8.894;2022-07-05T15:44:10;2.10;;;1.77;;
3959;SDS011;1994;48.640;8.894;2022-07-05T15:46:36;3.67;;;2.27;;
3959;SDS011;1994;48.640;8.894;2022-07-05T15:49:20;4.33;;;3.80;;
3959;SDS011;1994;48.640;8.894;2022-07-05T15:51:46;2.80;;;1.90;;
3959;SDS011;1994;48.640;8.894;2022-07-05T15:54:12;3.27;;;2.03;;
3959;SDS011;1994;48.640;8.894;2022-07-05T15:56:37;2.20;;;1.70;;
3959;SDS011;1994;48.640;8.894;2022-07-05T15:59:05;1.90;;;1.80;;
3959;SDS011;1994;48.640;8.894;2022-07-05T16:01:31;3.33;;;2.17;;
3959;SDS011;1994;48.640;8.894;2022-07-05T16:03:57;2.20;;;2.00;;